createdAt,value
2018-09-24T00:01:02.667Z,2.50
2018-09-24T00:03:35.214Z,2.80
2018-09-24T00:06:08.022Z,2.57
2018-09-24T00:08:40.290Z,2.83
2018-09-24T00:11:12.816Z,2.60
2018-09-24T00:13:45.315Z,2.60
2018-09-24T00:16:17.827Z,2.77
2018-09-24T00:18:50.289Z,2.83
2018-09-24T00:21:22.446Z,2.60
2018-09-24T00:23:54.638Z,2.83
2018-09-24T00:26:26.992Z,2.83
2018-09-24T00:28:59.210Z,3.20
2018-09-24T00:31:31.610Z,2.77
2018-09-24T00:34:04.064Z,2.80
2018-09-24T00:36:36.411Z,2.97
2018-09-24T00:39:11.730Z,3.77
2018-09-24T00:41:44.003Z,4.10
2018-09-24T00:44:16.515Z,4.17
2018-09-24T00:46:49.110Z,3.93
2018-09-24T00:49:21.396Z,3.50
2018-09-24T00:51:53.998Z,3.63
2018-09-24T00:54:26.322Z,3.23
2018-09-24T00:56:58.594Z,2.93
2018-09-24T00:59:31.115Z,3.20
2018-09-24T01:02:03.264Z,2.83
2018-09-24T01:04:35.671Z,3.07
2018-09-24T01:07:08.083Z,3.50
2018-09-24T01:09:40.343Z,3.00
2018-09-24T01:12:12.623Z,2.87
2018-09-24T01:14:45.012Z,3.17
2018-09-24T01:17:17.376Z,2.93
2018-09-24T01:19:50.524Z,4.40
2018-09-24T01:22:22.883Z,3.70
2018-09-24T01:24:55.290Z,2.90
2018-09-24T01:27:27.679Z,2.40
2018-09-24T01:30:00.077Z,3.57
2018-09-24T01:32:32.660Z,4.90
2018-09-24T01:35:05.003Z,4.57
2018-09-24T01:37:37.407Z,4.20
2018-09-24T01:40:10.031Z,7.73
2018-09-24T01:42:42.518Z,7.20
2018-09-24T01:45:14.955Z,5.83
2018-09-24T01:47:47.427Z,6.20
2018-09-24T01:50:19.866Z,5.17
2018-09-24T01:52:52.108Z,4.77
2018-09-24T01:55:24.824Z,5.00
2018-09-24T01:57:57.419Z,4.97
2018-09-24T02:00:30.070Z,3.90
2018-09-24T02:03:02.352Z,3.17
2018-09-24T02:05:34.588Z,6.00
2018-09-24T02:08:07.133Z,2.63
2018-09-24T02:10:39.894Z,2.60
2018-09-24T02:13:12.245Z,2.97
2018-09-24T02:15:44.917Z,2.80
2018-09-24T02:18:17.286Z,2.73
2018-09-24T02:20:50.304Z,3.07
2018-09-24T02:23:22.957Z,2.60
2018-09-24T02:25:55.185Z,2.23
2018-09-24T02:28:30.622Z,3.10
2018-09-24T02:31:03.245Z,2.40
2018-09-24T02:33:36.006Z,2.60
2018-09-24T02:36:08.817Z,2.50
2018-09-24T02:38:42.806Z,2.47
2018-09-24T02:41:15.404Z,2.87
2018-09-24T02:43:47.830Z,2.73
2018-09-24T02:46:20.121Z,2.53
2018-09-24T02:48:52.573Z,2.53
2018-09-24T02:51:25.032Z,2.50
2018-09-24T02:53:57.309Z,2.70
2018-09-24T02:56:29.790Z,2.30
2018-09-24T02:59:02.385Z,2.37
2018-09-24T03:01:36.870Z,2.80
2018-09-24T03:04:09.991Z,2.87
2018-09-24T03:06:42.460Z,2.87
2018-09-24T03:09:16.842Z,2.33
2018-09-24T03:11:49.601Z,2.70
2018-09-24T03:14:26.246Z,2.80
2018-09-24T03:16:58.800Z,2.87
2018-09-24T03:19:36.058Z,2.20
2018-09-24T03:22:08.290Z,2.80
2018-09-24T03:24:40.833Z,2.60
2018-09-24T03:27:13.420Z,3.10
2018-09-24T03:29:45.991Z,3.00
2018-09-24T03:32:18.739Z,3.07
2018-09-24T03:34:51.453Z,3.40
2018-09-24T03:37:23.740Z,3.20
2018-09-24T03:39:56.936Z,2.87
2018-09-24T03:42:29.306Z,3.20
2018-09-24T03:45:02.110Z,3.10
2018-09-24T03:47:34.024Z,2.43
2018-09-24T03:50:06.048Z,3.83
2018-09-24T03:52:38.475Z,2.90
2018-09-24T03:55:10.767Z,3.27
2018-09-24T03:57:43.699Z,3.50
2018-09-24T04:00:16.370Z,3.00
2018-09-24T04:02:48.806Z,2.97
2018-09-24T04:05:26.018Z,3.10
2018-09-24T04:08:02.442Z,2.60
2018-09-24T04:10:39.319Z,3.27
2018-09-24T04:13:15.833Z,3.77
2018-09-24T04:15:52.593Z,3.20
2018-09-24T04:18:29.655Z,3.20
2018-09-24T04:21:06.233Z,3.60
2018-09-24T04:23:42.681Z,2.57
2018-09-24T04:26:19.143Z,3.90
2018-09-24T04:28:55.761Z,3.30
2018-09-24T04:31:32.286Z,2.93
2018-09-24T04:34:09.499Z,3.40
2018-09-24T04:36:47.601Z,2.87
2018-09-24T04:39:24.618Z,3.93
2018-09-24T04:42:00.914Z,3.00
2018-09-24T04:44:37.302Z,4.23
2018-09-24T04:47:14.321Z,4.13
2018-09-24T04:49:51.311Z,3.30
2018-09-24T04:52:28.276Z,3.67
2018-09-24T04:55:06.323Z,3.67
2018-09-24T04:57:43.279Z,3.77
2018-09-24T05:00:20.319Z,3.43
2018-09-24T05:02:57.110Z,4.00
2018-09-24T05:05:34.525Z,3.60
2018-09-24T05:08:11.236Z,3.30
2018-09-24T05:10:48.506Z,3.60
2018-09-24T05:13:25.346Z,4.30
2018-09-24T05:16:02.239Z,4.20
2018-09-24T05:18:39.163Z,4.10
2018-09-24T05:21:16.077Z,3.67
2018-09-24T05:23:52.705Z,4.20
2018-09-24T05:26:29.422Z,3.60
2018-09-24T05:29:06.235Z,3.40
2018-09-24T05:31:43.487Z,3.70
2018-09-24T05:34:20.377Z,4.00
2018-09-24T05:36:57.227Z,4.17
2018-09-24T05:39:33.896Z,3.50
2018-09-24T05:42:10.894Z,4.20
2018-09-24T05:44:47.748Z,4.30
2018-09-24T05:47:24.880Z,4.40
2018-09-24T05:50:01.598Z,3.97
2018-09-24T05:52:38.372Z,3.87
2018-09-24T05:55:14.973Z,4.90
2018-09-24T05:57:51.849Z,4.10
2018-09-24T06:00:28.737Z,3.90
2018-09-24T06:03:06.319Z,4.30
2018-09-24T06:05:43.170Z,4.50
2018-09-24T06:08:19.895Z,5.13
2018-09-24T06:10:56.603Z,4.20
2018-09-24T06:13:33.561Z,4.43
2018-09-24T06:16:11.051Z,4.30
2018-09-24T06:18:48.162Z,4.63
2018-09-24T06:21:25.082Z,3.53
2018-09-24T06:24:01.999Z,4.70
2018-09-24T06:26:38.846Z,4.03
2018-09-24T06:29:16.048Z,4.60
2018-09-24T06:31:52.870Z,3.97
2018-09-24T06:34:29.848Z,4.10
2018-09-24T06:37:06.729Z,4.40
2018-09-24T06:39:43.626Z,4.27
2018-09-24T06:42:20.509Z,4.73
2018-09-24T06:44:57.609Z,4.13
2018-09-24T06:47:34.657Z,4.43
2018-09-24T06:50:11.637Z,4.30
2018-09-24T06:52:48.866Z,4.90
2018-09-24T06:55:25.543Z,4.90
2018-09-24T06:58:02.489Z,4.07
2018-09-24T07:00:39.753Z,4.30
2018-09-24T07:03:16.761Z,4.23
2018-09-24T07:05:53.463Z,4.60
2018-09-24T07:08:30.522Z,4.60
2018-09-24T07:11:07.573Z,4.47
2018-09-24T07:13:44.540Z,4.37
2018-09-24T07:16:21.401Z,3.80
2018-09-24T07:18:58.305Z,5.40
2018-09-24T07:21:35.056Z,5.30
2018-09-24T07:24:11.821Z,5.63
2018-09-24T07:26:48.753Z,4.63
2018-09-24T07:29:25.571Z,4.70
2018-09-24T07:32:02.552Z,4.67
2018-09-24T07:34:39.078Z,4.70
2018-09-24T07:37:16.032Z,5.20
2018-09-24T07:39:52.910Z,5.57
2018-09-24T07:42:30.089Z,5.23
2018-09-24T07:45:06.710Z,5.77
2018-09-24T07:47:43.772Z,4.50
2018-09-24T07:50:20.986Z,4.93
2018-09-24T07:52:57.329Z,5.00
2018-09-24T07:55:34.119Z,5.30
2018-09-24T07:58:10.751Z,5.20
2018-09-24T08:00:48.124Z,4.87
2018-09-24T08:03:24.755Z,5.10
2018-09-24T08:06:01.665Z,4.80
2018-09-24T08:08:38.383Z,5.30
2018-09-24T08:11:15.234Z,4.77
2018-09-24T08:13:52.118Z,4.90
2018-09-24T08:16:28.703Z,4.93
2018-09-24T08:19:05.654Z,4.97
2018-09-24T08:21:42.393Z,4.50
2018-09-24T08:24:19.126Z,5.30
2018-09-24T08:26:56.011Z,5.57
2018-09-24T08:29:32.623Z,5.37
2018-09-24T08:32:09.287Z,5.07
2018-09-24T08:34:46.154Z,4.97
2018-09-24T08:37:23.250Z,6.00
2018-09-24T08:40:00.162Z,5.83
2018-09-24T08:42:37.023Z,5.47
2018-09-24T08:45:13.560Z,6.20
2018-09-24T08:47:50.513Z,6.10
2018-09-24T08:50:27.901Z,5.50
2018-09-24T08:53:04.433Z,5.53
2018-09-24T08:55:41.613Z,6.70
2018-09-24T08:58:18.248Z,5.60
2018-09-24T09:00:55.537Z,5.37
2018-09-24T09:03:32.490Z,5.77
2018-09-24T09:06:09.179Z,6.30
2018-09-24T09:08:46.018Z,6.07
2018-09-24T09:11:22.590Z,6.50
2018-09-24T09:13:59.206Z,7.13
2018-09-24T09:16:36.278Z,6.60
2018-09-24T09:19:13.205Z,6.20
2018-09-24T09:21:50.137Z,6.23
2018-09-24T09:24:27.446Z,7.03
2018-09-24T09:27:04.609Z,6.03
2018-09-24T09:29:41.277Z,5.90
2018-09-24T09:32:17.898Z,4.90
2018-09-24T09:34:55.045Z,6.70
2018-09-24T09:37:31.864Z,6.67
2018-09-24T09:40:08.804Z,6.10
2018-09-24T09:42:45.707Z,6.33
2018-09-24T09:45:22.542Z,7.80
2018-09-24T09:47:59.596Z,7.30
2018-09-24T09:50:36.514Z,7.17
2018-09-24T09:53:13.070Z,6.60
2018-09-24T09:55:49.832Z,6.43
2018-09-24T09:58:26.747Z,5.60
2018-09-24T10:01:03.773Z,6.80
2018-09-24T10:03:40.929Z,7.00
2018-09-24T10:06:17.569Z,8.05
2018-09-24T10:08:54.491Z,8.18
2018-09-24T10:11:31.411Z,6.30
2018-09-24T10:14:08.540Z,6.33
2018-09-24T10:16:45.371Z,6.30
2018-09-24T10:19:22.503Z,7.05
2018-09-24T10:21:59.190Z,7.55
2018-09-24T10:24:36.058Z,7.10
2018-09-24T10:27:12.720Z,7.70
2018-09-24T10:29:49.658Z,7.47
2018-09-24T10:32:26.566Z,6.95
2018-09-24T10:35:03.628Z,8.05
2018-09-24T10:37:40.517Z,7.62
2018-09-24T10:40:17.871Z,7.40
2018-09-24T10:42:55.017Z,7.78
2018-09-24T10:45:31.873Z,7.22
2018-09-24T10:48:08.594Z,7.15
2018-09-24T10:50:45.232Z,7.95
2018-09-24T10:53:22.069Z,8.55
2018-09-24T10:55:59.233Z,7.60
2018-09-24T10:58:36.175Z,8.95
2018-09-24T11:01:13.639Z,8.38
2018-09-24T11:03:50.506Z,7.67
2018-09-24T11:06:27.204Z,8.53
2018-09-24T11:09:04.166Z,6.58
2018-09-24T11:11:41.289Z,7.08
2018-09-24T11:14:18.207Z,7.15
2018-09-24T11:16:55.029Z,6.92
2018-09-24T11:19:31.785Z,8.68
2018-09-24T11:22:08.615Z,7.90
2018-09-24T11:24:45.437Z,9.93
2018-09-24T11:27:22.433Z,10.30
2018-09-24T11:29:59.533Z,10.00
2018-09-24T11:32:36.231Z,16.00
2018-09-24T11:35:13.410Z,16.90
2018-09-24T11:37:50.308Z,20.52
2018-09-24T11:40:27.188Z,20.27
2018-09-24T11:43:04.186Z,15.15
2018-09-24T11:45:41.131Z,12.85
2018-09-24T11:48:17.780Z,10.20
2018-09-24T11:50:54.611Z,11.85
2018-09-24T11:53:31.513Z,10.75
2018-09-24T11:56:08.369Z,12.95
2018-09-24T11:58:45.437Z,10.85
2018-09-24T12:01:22.185Z,9.65
2018-09-24T12:03:59.966Z,9.70
2018-09-24T12:06:36.682Z,9.80
2018-09-24T12:09:15.558Z,8.45
2018-09-24T12:11:52.702Z,8.00
2018-09-24T12:14:29.644Z,7.08
2018-09-24T12:17:06.462Z,7.55
2018-09-24T12:19:43.278Z,8.20
2018-09-24T12:22:19.874Z,7.47
2018-09-24T12:24:56.866Z,8.08
2018-09-24T12:27:33.597Z,7.20
2018-09-24T12:30:10.411Z,6.67
2018-09-24T12:32:47.301Z,8.53
2018-09-24T12:35:24.507Z,7.95
2018-09-24T12:38:00.883Z,7.47
2018-09-24T12:40:37.845Z,7.80
2018-09-24T12:43:14.819Z,6.90
2018-09-24T12:45:51.819Z,7.83
2018-09-24T12:48:28.681Z,10.08
2018-09-24T12:51:05.487Z,9.15
2018-09-24T12:53:42.131Z,9.43
2018-09-24T12:56:18.896Z,10.25
2018-09-24T12:58:55.583Z,10.00
2018-09-24T13:01:33.222Z,9.70
2018-09-24T13:04:10.078Z,9.05
2018-09-24T13:06:46.887Z,7.83
2018-09-24T13:09:23.489Z,9.75
2018-09-24T13:12:00.417Z,10.80
2018-09-24T13:14:36.925Z,9.35
2018-09-24T13:17:13.910Z,11.28
2018-09-24T13:19:50.489Z,8.18
2018-09-24T13:22:28.327Z,9.83
2018-09-24T13:25:05.523Z,9.88
2018-09-24T13:27:42.143Z,10.03
2018-09-24T13:30:18.730Z,10.08
2018-09-24T13:32:55.428Z,10.65
2018-09-24T13:35:32.313Z,11.43
2018-09-24T13:38:09.088Z,10.95
2018-09-24T13:40:45.930Z,10.08
2018-09-24T13:43:22.872Z,11.22
2018-09-24T13:45:59.733Z,13.10
2018-09-24T13:48:36.697Z,11.73
2018-09-24T13:51:13.341Z,14.93
2018-09-24T13:53:50.018Z,16.15
2018-09-24T13:56:26.547Z,17.50
2018-09-24T13:59:03.711Z,19.35
2018-09-24T14:01:40.827Z,18.27
2018-09-24T14:04:17.558Z,20.77
2018-09-24T14:06:54.663Z,18.73
2018-09-24T14:09:31.399Z,20.90
2018-09-24T14:12:08.010Z,19.73
2018-09-24T14:14:44.868Z,19.02
2018-09-24T14:17:21.668Z,18.80
2018-09-24T14:19:58.555Z,20.85
2018-09-24T14:22:35.403Z,21.45
2018-09-24T14:25:12.081Z,21.33
2018-09-24T14:27:49.879Z,20.08
2018-09-24T14:30:26.785Z,21.23
2018-09-24T14:33:03.217Z,19.70
2018-09-24T14:35:39.868Z,22.58
2018-09-24T14:38:16.748Z,20.05
2018-09-24T14:40:53.610Z,17.10
2018-09-24T14:43:30.273Z,16.82
2018-09-24T14:46:07.138Z,15.80
2018-09-24T14:48:44.058Z,16.77
2018-09-24T14:51:20.856Z,15.03
2018-09-24T14:54:00.488Z,16.10
2018-09-24T14:56:37.683Z,13.62
2018-09-24T14:59:14.518Z,13.40
2018-09-24T15:01:52.077Z,13.98
2018-09-24T15:04:30.259Z,13.93
2018-09-24T15:07:07.512Z,15.33
2018-09-24T15:09:44.308Z,13.70
2018-09-24T15:12:21.934Z,13.03
2018-09-24T15:14:58.803Z,12.00
2018-09-24T15:17:35.699Z,11.40
2018-09-24T15:20:12.382Z,11.37
2018-09-24T15:22:49.234Z,11.27
2018-09-24T15:25:26.105Z,10.77
2018-09-24T15:28:02.779Z,10.50
2018-09-24T15:30:39.614Z,11.00
2018-09-24T15:33:16.394Z,9.70
2018-09-24T15:35:53.448Z,11.60
2018-09-24T15:38:30.582Z,11.43
2018-09-24T15:41:07.098Z,11.30
2018-09-24T15:43:43.761Z,12.77
2018-09-24T15:46:20.198Z,10.70
2018-09-24T15:48:57.069Z,11.43
2018-09-24T15:51:34.028Z,10.87
2018-09-24T15:54:11.221Z,11.77
2018-09-24T15:56:47.893Z,12.53
2018-09-24T15:59:24.579Z,12.43
2018-09-24T16:02:01.635Z,10.97
2018-09-24T16:04:38.267Z,11.80
2018-09-24T16:07:15.091Z,11.37
2018-09-24T16:09:52.130Z,10.57
2018-09-24T16:12:29.288Z,11.47
2018-09-24T16:15:06.405Z,11.23
2018-09-24T16:17:43.160Z,10.43
2018-09-24T16:20:20.326Z,10.53
2018-09-24T16:22:57.184Z,10.67
2018-09-24T16:25:34.258Z,8.00
2018-09-24T16:28:10.933Z,7.63
2018-09-24T16:30:48.065Z,6.10
2018-09-24T16:33:24.857Z,7.00
2018-09-24T16:36:01.875Z,6.90
2018-09-24T16:38:39.075Z,7.10
2018-09-24T16:41:16.688Z,7.33
2018-09-24T16:43:53.450Z,7.40
2018-09-24T16:46:30.110Z,7.17
2018-09-24T16:49:07.531Z,7.03
2018-09-24T16:51:44.191Z,9.13
2018-09-24T16:54:20.640Z,9.30
2018-09-24T16:56:57.907Z,8.23
2018-09-24T16:59:34.853Z,11.07
2018-09-24T17:02:11.636Z,10.07
2018-09-24T17:04:48.185Z,9.20
2018-09-24T17:07:24.873Z,9.13
2018-09-24T17:10:01.613Z,9.70
2018-09-24T17:12:39.158Z,9.73
2018-09-24T17:15:15.796Z,9.33
2018-09-24T17:17:52.564Z,9.47
2018-09-24T17:20:28.890Z,9.00
2018-09-24T17:23:05.806Z,9.40
2018-09-24T17:25:42.680Z,9.80
2018-09-24T17:28:19.503Z,9.90
2018-09-24T17:30:56.204Z,10.17
2018-09-24T17:33:33.353Z,9.33
2018-09-24T17:36:10.016Z,10.77
2018-09-24T17:38:46.697Z,11.37
2018-09-24T17:41:23.291Z,9.67
2018-09-24T17:44:00.149Z,9.70
2018-09-24T17:46:37.253Z,9.23
2018-09-24T17:49:14.537Z,8.87
2018-09-24T17:51:51.818Z,9.13
2018-09-24T17:54:28.976Z,10.50
2018-09-24T17:57:05.986Z,10.73
2018-09-24T17:59:42.713Z,9.60
2018-09-24T18:02:20.210Z,7.80
2018-09-24T18:04:56.883Z,8.87
2018-09-24T18:07:33.480Z,8.80
2018-09-24T18:10:10.419Z,9.63
2018-09-24T18:12:47.273Z,9.90
2018-09-24T18:15:24.145Z,7.70
2018-09-24T18:18:01.321Z,9.70
2018-09-24T18:20:38.491Z,10.87
2018-09-24T18:23:15.306Z,8.80
2018-09-24T18:25:52.362Z,7.27
2018-09-24T18:28:29.468Z,7.20
2018-09-24T18:31:06.692Z,7.50
2018-09-24T18:33:43.427Z,6.60
2018-09-24T18:36:20.308Z,7.40
2018-09-24T18:38:57.148Z,7.40
2018-09-24T18:41:33.894Z,7.23
2018-09-24T18:44:10.837Z,8.10
2018-09-24T18:46:47.470Z,6.30
2018-09-24T18:49:24.328Z,6.17
2018-09-24T18:52:01.667Z,6.30
2018-09-24T18:54:38.511Z,6.03
2018-09-24T18:57:15.334Z,7.07
2018-09-24T18:59:52.461Z,6.37
2018-09-24T19:02:30.680Z,5.20
2018-09-24T19:05:07.599Z,5.43
2018-09-24T19:07:44.739Z,6.30
2018-09-24T19:10:21.628Z,5.20
2018-09-24T19:12:58.438Z,5.40
2018-09-24T19:15:35.235Z,5.50
2018-09-24T19:18:12.118Z,6.00
2018-09-24T19:20:48.744Z,5.47
2018-09-24T19:23:25.938Z,6.63
2018-09-24T19:26:02.528Z,6.30
2018-09-24T19:28:39.167Z,5.80
2018-09-24T19:31:15.789Z,6.40
2018-09-24T19:33:52.763Z,6.07
2018-09-24T19:36:29.404Z,7.00
2018-09-24T19:39:06.069Z,5.97
2018-09-24T19:41:42.937Z,8.03
2018-09-24T19:44:19.434Z,4.73
2018-09-24T19:46:56.365Z,5.33
2018-09-24T19:49:33.222Z,5.83
2018-09-24T19:52:09.866Z,5.70
2018-09-24T19:54:46.757Z,5.27
2018-09-24T19:57:23.681Z,5.50
2018-09-24T20:00:00.634Z,4.73
2018-09-24T20:02:37.766Z,5.13
2018-09-24T20:05:14.485Z,5.03
2018-09-24T20:07:51.391Z,4.60
2018-09-24T20:10:28.278Z,4.93
2018-09-24T20:13:05.208Z,5.00
2018-09-24T20:15:41.841Z,4.60
2018-09-24T20:18:18.979Z,4.00
2018-09-24T20:20:55.657Z,4.50
2018-09-24T20:23:32.657Z,4.23
2018-09-24T20:26:09.334Z,4.70
2018-09-24T20:28:46.325Z,4.67
2018-09-24T20:31:22.791Z,4.40
2018-09-24T20:33:59.745Z,4.40
2018-09-24T20:36:36.698Z,5.10
2018-09-24T20:39:15.154Z,4.87
2018-09-24T20:41:52.044Z,4.73
2018-09-24T20:44:28.868Z,4.20
2018-09-24T20:47:05.722Z,4.80
2018-09-24T20:49:42.458Z,4.57
2018-09-24T20:52:19.252Z,4.30
2018-09-24T20:54:55.897Z,4.23
2018-09-24T20:57:32.985Z,4.23
2018-09-24T21:00:09.611Z,3.60
2018-09-24T21:02:46.434Z,4.00
2018-09-24T21:05:23.741Z,4.13
2018-09-24T21:08:00.371Z,4.50
2018-09-24T21:10:37.156Z,4.10
2018-09-24T21:13:13.862Z,3.57
2018-09-24T21:15:50.988Z,4.10
2018-09-24T21:18:27.781Z,3.60
2018-09-24T21:21:04.606Z,3.73
2018-09-24T21:23:41.121Z,4.43
2018-09-24T21:26:18.002Z,3.80
2018-09-24T21:28:55.030Z,3.67
2018-09-24T21:31:31.897Z,3.93
2018-09-24T21:34:09.156Z,4.10
2018-09-24T21:36:46.263Z,3.57
2018-09-24T21:39:23.125Z,3.13
2018-09-24T21:42:00.050Z,3.90
2018-09-24T21:44:36.988Z,3.40
2018-09-24T21:47:13.897Z,4.47
2018-09-24T21:49:50.911Z,3.23
2018-09-24T21:52:28.570Z,3.70
2018-09-24T21:55:05.532Z,3.20
2018-09-24T21:57:42.422Z,4.03
2018-09-24T22:00:19.822Z,3.50
2018-09-24T22:02:57.004Z,3.17
2018-09-24T22:05:33.871Z,3.40
2018-09-24T22:08:10.476Z,3.50
2018-09-24T22:10:47.454Z,3.03
2018-09-24T22:13:24.326Z,3.40
2018-09-24T22:16:01.140Z,3.40
2018-09-24T22:18:38.110Z,3.43
2018-09-24T22:21:14.683Z,3.40
2018-09-24T22:23:51.561Z,2.97
2018-09-24T22:26:28.149Z,3.30
2018-09-24T22:29:05.506Z,2.50
2018-09-24T22:31:41.983Z,3.13
2018-09-24T22:34:18.880Z,2.53
2018-09-24T22:36:56.022Z,2.50
2018-09-24T22:39:33.182Z,2.83
2018-09-24T22:42:10.216Z,2.67
2018-09-24T22:44:47.081Z,3.00
2018-09-24T22:47:23.978Z,2.67
2018-09-24T22:50:00.668Z,2.27
2018-09-24T22:52:37.299Z,2.20
2018-09-24T22:55:13.841Z,2.10
2018-09-24T22:57:50.555Z,2.27
2018-09-24T23:00:27.648Z,3.10
2018-09-24T23:03:04.673Z,2.30
2018-09-24T23:05:41.381Z,2.27
2018-09-24T23:08:24.831Z,2.23
2018-09-24T23:11:01.517Z,2.47
2018-09-24T23:13:38.321Z,2.63
2018-09-24T23:16:15.207Z,2.53
2018-09-24T23:18:52.159Z,2.40
2018-09-24T23:21:29.146Z,2.40
2018-09-24T23:24:06.090Z,2.37
2018-09-24T23:26:42.902Z,2.30
2018-09-24T23:29:19.626Z,2.50
2018-09-24T23:31:56.235Z,2.40
2018-09-24T23:34:32.997Z,2.57
2018-09-24T23:37:10.360Z,2.50
2018-09-24T23:39:46.862Z,2.20
2018-09-24T23:42:23.496Z,2.10
2018-09-24T23:45:00.414Z,2.53
2018-09-24T23:47:37.842Z,2.63
2018-09-24T23:50:14.731Z,2.70
2018-09-24T23:52:52.391Z,2.47
2018-09-24T23:55:29.354Z,2.20
2018-09-24T23:58:05.993Z,2.37
